Time;durP1;ratioP1;P1;durP2;ratioP2;P2;SDS_P1;SDS_P2;PMS_P1;PMS_P2;Temp;Humidity;BMP_temperature;BMP_pressure;BME280_temperature;BME280_humidity;BME280_pressure;Samples;Min_cycle;Max_cycle;Signal;HPM_P1;HPM_P2
2020/12/16 00:00:43;;;;;;;47.00;26.86;;;;;;;4.30;70.69;100316.92;359303;110;1961924;-73
2020/12/16 00:01:56;;;;;;;49.61;25.87;;;;;;;4.33;70.69;100317.45;360488;111;1961981;-73
2020/12/16 00:03:01;;;;;;;48.86;25.36;;;;;;;4.35;70.56;100314.64;343942;111;1962032;-72
2020/12/16 00:04:06;;;;;;;43.60;23.87;;;;;;;4.38;70.49;100315.17;356453;111;1961964;-72
2020/12/16 00:05:12;;;;;;;46.77;24.38;;;;;;;4.40;70.40;100318.55;360672;111;1962027;-72
2020/12/16 00:06:17;;;;;;;43.88;23.27;;;;;;;4.45;70.35;100319.95;360156;111;1962011;-73
2020/12/16 00:07:23;;;;;;;45.43;23.42;;;;;;;4.46;70.28;100317.11;355914;112;1962017;-72
2020/12/16 00:08:29;;;;;;;45.77;24.13;;;;;;;4.48;70.11;100320.48;352849;112;1961981;-72
2020/12/16 00:09:36;;;;;;;40.97;24.23;;;;;;;4.51;70.07;100317.50;355000;111;1962967;-72
2020/12/16 00:10:41;;;;;;;45.16;25.94;;;;;;;4.52;70.00;100316.49;358647;110;1962990;-73
2020/12/16 00:11:46;;;;;;;45.17;25.39;;;;;;;4.54;69.87;100319.03;359938;111;1961949;-73
2020/12/16 00:12:52;;;;;;;49.84;27.14;;;;;;;4.54;69.82;100321.70;360211;111;1960657;-73
2020/12/16 00:13:57;;;;;;;54.77;28.10;;;;;;;4.55;69.66;100313.54;359588;110;1961973;-73
2020/12/16 00:15:03;;;;;;;48.85;28.09;;;;;;;4.52;69.65;100312.98;359518;111;1961969;-73
2020/12/16 00:16:10;;;;;;;51.77;27.84;;;;;;;4.47;69.69;100323.29;359846;110;1962016;-73
2020/12/16 00:17:16;;;;;;;47.50;29.21;;;;;;;4.36;69.76;100314.48;358176;111;1961946;-72
2020/12/16 00:18:21;;;;;;;49.76;27.92;;;;;;;4.28;69.93;100318.90;360159;110;1963059;-73
2020/12/16 00:19:27;;;;;;;52.67;29.74;;;;;;;4.15;70.18;100322.78;314319;112;2730068;-73
2020/12/16 00:20:34;;;;;;;51.98;27.22;;;;;;;4.07;70.40;100325.33;360808;112;1962032;-73
2020/12/16 00:21:40;;;;;;;54.01;27.68;;;;;;;3.98;70.74;100322.72;359016;111;1962078;-73
2020/12/16 00:22:46;;;;;;;55.06;28.47;;;;;;;3.92;71.03;100319.64;361136;110;1961951;-73
2020/12/16 00:23:52;;;;;;;57.64;30.67;;;;;;;3.91;71.12;100319.77;310536;114;2791961;-73
2020/12/16 00:24:57;;;;;;;53.16;29.19;;;;;;;3.93;71.11;100323.98;342101;110;1962968;-73
2020/12/16 00:26:02;;;;;;;45.21;25.84;;;;;;;3.97;71.12;100324.55;353667;112;1960841;-73
2020/12/16 00:27:11;;;;;;;52.32;27.71;;;;;;;3.99;71.10;100317.20;355183;112;1961908;-73
2020/12/16 00:28:16;;;;;;;61.53;31.84;;;;;;;4.03;71.05;100321.28;310857;113;2078319;-73
2020/12/16 00:29:22;;;;;;;55.68;31.02;;;;;;;4.07;71.10;100324.49;346466;112;1960940;-73
2020/12/16 00:30:28;;;;;;;65.12;30.22;;;;;;;4.12;71.05;100316.88;359643;110;1960944;-73
2020/12/16 00:31:33;;;;;;;53.36;29.98;;;;;;;4.15;70.98;100320.11;354082;113;1961973;-73
2020/12/16 00:32:40;;;;;;;59.41;30.16;;;;;;;4.17;70.92;100318.11;357052;111;1961947;-72
2020/12/16 00:33:46;;;;;;;54.62;29.39;;;;;;;4.19;70.90;100313.45;305689;111;2823886;-72
2020/12/16 00:34:51;;;;;;;52.76;29.76;;;;;;;4.23;70.88;100326.53;330853;112;1962019;-73
2020/12/16 00:35:56;;;;;;;53.47;29.77;;;;;;;4.26;70.90;100320.88;350190;111;1962031;-73
2020/12/16 00:37:01;;;;;;;57.87;29.53;;;;;;;4.27;70.77;100320.73;356406;111;1963074;-72
2020/12/16 00:38:06;;;;;;;56.95;30.62;;;;;;;4.30;70.72;100320.44;356682;111;1961035;-73
2020/12/16 00:39:12;;;;;;;52.07;30.11;;;;;;;4.32;70.69;100315.78;356097;111;1962062;-72
2020/12/16 00:40:18;;;;;;;56.53;30.77;;;;;;;4.35;70.54;100318.16;357614;111;1961950;-73
2020/12/16 00:41:37;;;;;;;54.44;30.54;;;;;;;4.36;70.51;100317.16;356500;111;1962957;-72
2020/12/16 00:42:48;;;;;;;56.83;32.50;;;;;;;4.37;70.42;100315.34;360677;109;1961994;-73
2020/12/16 00:43:54;;;;;;;57.13;32.48;;;;;;;4.38;70.40;100320.53;360241;110;1964061;-73
2020/12/16 00:45:00;;;;;;;56.26;31.67;;;;;;;4.39;70.37;100316.02;304479;113;2870829;-73
2020/12/16 00:46:05;;;;;;;58.06;32.73;;;;;;;4.40;70.37;100315.88;362832;110;1962892;-73
2020/12/16 00:47:11;;;;;;;57.72;30.99;;;;;;;4.42;70.38;100310.39;357405;113;1962967;-73
2020/12/16 00:48:16;;;;;;;54.94;30.95;;;;;;;4.44;70.29;100316.41;353094;112;1962001;-73
2020/12/16 00:49:22;;;;;;;55.53;29.86;;;;;;;4.46;70.24;100319.78;352795;114;1960934;-73
2020/12/16 00:50:29;;;;;;;55.38;31.06;;;;;;;4.45;70.14;100318.11;297768;114;2148824;-72
2020/12/16 00:51:36;;;;;;;52.38;32.06;;;;;;;4.48;70.06;100315.13;352187;114;1961726;-73
2020/12/16 00:52:42;;;;;;;54.04;30.92;;;;;;;4.48;69.99;100314.29;359035;112;1961845;-73
2020/12/16 00:53:59;;;;;;;54.06;30.73;;;;;;;4.50;69.98;100320.31;358153;112;1962052;-74
2020/12/16 00:55:05;;;;;;;58.81;32.55;;;;;;;4.50;69.96;100317.63;349531;110;1963059;-73
2020/12/16 00:56:12;;;;;;;53.04;31.34;;;;;;;4.49;69.86;100319.47;360638;110;1963891;-73
2020/12/16 00:57:19;;;;;;;57.90;34.71;;;;;;;4.43;69.78;100319.25;309414;109;2208808;-73
2020/12/16 00:58:24;;;;;;;62.24;33.97;;;;;;;4.36;69.91;100313.64;364854;108;1961972;-73
2020/12/16 00:59:31;;;;;;;61.58;35.28;;;;;;;4.27;69.96;100318.06;368484;107;1962036;-73
2020/12/16 01:00:48;;;;;;;57.81;33.92;;;;;;;4.18;70.00;100311.78;329364;107;2026466;-72
2020/12/16 01:01:55;;;;;;;56.79;34.13;;;;;;;4.12;69.88;100314.20;356934;111;1963959;-73
2020/12/16 01:03:00;;;;;;;58.72;32.64;;;;;;;3.98;70.19;100310.19;355788;111;1961957;-73
2020/12/16 01:04:07;;;;;;;54.69;31.59;;;;;;;3.91;70.70;100311.75;337885;111;1961990;-73
2020/12/16 01:05:16;;;;;;;52.83;29.12;;;;;;;3.87;70.80;100310.38;357759;111;1962042;-73
2020/12/16 01:06:25;;;;;;;52.74;29.59;;;;;;;3.84;70.84;100303.50;358204;111;1961975;-72
2020/12/16 01:07:31;;;;;;;57.36;30.77;;;;;;;3.83;70.95;100298.29;334662;113;2935003;-73
2020/12/16 01:08:39;;;;;;;48.77;30.37;;;;;;;3.85;70.96;100301.66;339041;111;1961982;-73
2020/12/16 01:09:44;;;;;;;53.76;29.01;;;;;;;3.85;71.04;100299.83;350716;113;1962046;-73
2020/12/16 01:10:52;;;;;;;55.60;32.88;;;;;;;3.89;71.14;100303.03;350905;113;1963994;-72
2020/12/16 01:11:58;;;;;;;56.98;30.98;;;;;;;3.93;71.10;100304.44;356752;111;1960660;-73
2020/12/16 01:13:04;;;;;;;55.46;30.17;;;;;;;3.96;71.00;100294.28;350663;113;1960679;-73
2020/12/16 01:15:09;;;;;;;63.42;32.43;;;;;;;4.13;70.99;100289.16;385999;106;1987044;-77
2020/12/16 01:16:15;;;;;;;55.25;31.06;;;;;;;4.05;70.85;100297.05;355521;110;1963024;-77
2020/12/16 01:17:21;;;;;;;55.57;30.74;;;;;;;4.09;70.88;100295.78;356345;111;1963058;-76
2020/12/16 01:18:27;;;;;;;59.51;33.98;;;;;;;4.14;70.74;100296.18;354856;111;1963927;-75
2020/12/16 01:19:34;;;;;;;53.17;31.91;;;;;;;4.15;70.63;100296.05;329267;111;2419928;-77
2020/12/16 01:20:43;;;;;;;56.12;29.91;;;;;;;4.17;70.63;100295.88;355820;112;1961975;-78
2020/12/16 01:22:06;;;;;;;59.95;32.57;;;;;;;4.18;70.53;100290.39;348925;114;1961963;-77
2020/12/16 01:23:13;;;;;;;54.31;31.10;;;;;;;4.18;70.46;100292.20;351838;111;1961994;-77
2020/12/16 01:24:19;;;;;;;55.43;31.89;;;;;;;4.18;70.50;100285.05;308001;111;2825003;-77
2020/12/16 01:25:26;;;;;;;55.04;30.78;;;;;;;4.20;70.55;100284.87;355775;111;1963032;-78
2020/12/16 01:26:42;;;;;;;53.41;28.87;;;;;;;4.21;70.57;100291.06;327446;111;1960869;-76
2020/12/16 01:27:52;;;;;;;54.37;31.94;;;;;;;4.23;70.73;100291.77;345822;112;1961968;-73
2020/12/16 01:28:58;;;;;;;58.24;33.84;;;;;;;4.26;70.64;100286.98;298465;117;2753956;-72
2020/12/16 01:30:09;;;;;;;68.16;36.58;;;;;;;4.29;70.57;100286.67;339479;115;1962875;-72
2020/12/16 01:31:14;;;;;;;65.27;32.65;;;;;;;4.31;70.46;100292.72;344841;115;1962016;-73
2020/12/16 01:32:20;;;;;;;65.81;36.04;;;;;;;4.33;70.32;100279.17;344767;115;1963040;-73
2020/12/16 01:33:25;;;;;;;63.17;34.96;;;;;;;4.34;70.36;100284.39;344225;115;1964021;-73
2020/12/16 01:34:42;;;;;;;66.77;38.13;;;;;;;4.38;70.25;100288.43;343800;115;1964978;-72
2020/12/16 01:35:48;;;;;;;64.63;36.94;;;;;;;4.38;70.08;100287.59;319622;117;2398967;-73
2020/12/16 01:36:54;;;;;;;66.23;37.27;;;;;;;4.39;70.06;100286.59;343981;115;1961979;-73
2020/12/16 01:37:59;;;;;;;65.49;38.53;;;;;;;4.38;70.08;100280.41;345588;115;1962895;-72
2020/12/16 01:39:09;;;;;;;66.62;36.82;;;;;;;4.39;70.09;100283.91;344396;115;1961975;-72
2020/12/16 01:40:17;;;;;;;51.96;31.40;;;;;;;4.39;70.04;100278.56;307245;117;2656006;-73
2020/12/16 01:41:24;;;;;;;55.22;29.83;;;;;;;4.39;69.91;100274.08;343484;115;1963069;-72
2020/12/16 01:42:31;;;;;;;60.31;32.77;;;;;;;4.40;69.87;100274.92;343167;115;1961972;-72
2020/12/16 01:43:38;;;;;;;63.01;33.01;;;;;;;4.39;69.80;100273.22;309979;117;1988654;-72
2020/12/16 01:44:45;;;;;;;57.66;31.96;;;;;;;4.36;69.82;100271.68;344360;115;1962033;-73
2020/12/16 01:45:51;;;;;;;65.86;32.86;;;;;;;4.30;69.81;100272.30;316595;115;2543074;-72
2020/12/16 01:46:59;;;;;;;63.51;32.62;;;;;;;4.22;70.08;100276.72;335790;115;1964862;-74
2020/12/16 01:48:06;;;;;;;63.83;33.71;;;;;;;4.11;70.33;100270.59;344663;117;1961696;-73
2020/12/16 01:49:12;;;;;;;57.45;29.46;;;;;;;4.03;70.43;100270.48;343827;117;1961990;-72
2020/12/16 01:50:19;;;;;;;60.01;32.87;;;;;;;3.95;70.54;100273.91;344262;117;1962115;-73
2020/12/16 01:51:25;;;;;;;53.47;29.55;;;;;;;3.93;70.68;100267.86;307157;117;1986809;-72
2020/12/16 01:52:34;;;;;;;59.68;31.03;;;;;;;3.83;71.01;100253.69;344799;115;1964056;-72
2020/12/16 01:53:43;;;;;;;61.19;31.92;;;;;;;3.91;71.19;100263.64;300904;115;2785802;-73
2020/12/16 01:54:52;;;;;;;49.85;27.04;;;;;;;3.95;71.06;100265.05;343806;115;1961937;-73
2020/12/16 01:55:59;;;;;;;59.37;29.53;;;;;;;3.96;71.09;100267.55;345490;115;1961883;-73
2020/12/16 01:57:10;;;;;;;57.73;31.35;;;;;;;3.99;71.07;100263.74;342433;115;1962059;-73
2020/12/16 01:58:28;;;;;;;52.96;28.32;;;;;;;4.03;71.04;100264.31;297717;117;2845005;-73
2020/12/16 01:59:37;;;;;;;59.64;30.53;;;;;;;3.99;71.02;100254.89;303250;115;2036498;-72
2020/12/16 02:00:47;;;;;;;62.38;30.47;;;;;;;4.08;70.99;100262.87;344375;117;1962021;-73
2020/12/16 02:01:55;;;;;;;55.98;29.66;;;;;;;4.13;70.90;100265.10;344573;117;1961977;-72
2020/12/16 02:03:02;;;;;;;58.94;29.80;;;;;;;4.15;70.77;100263.96;343263;117;1962942;-72
2020/12/16 02:04:22;;;;;;;54.79;30.07;;;;;;;4.15;70.91;100261.29;343868;117;1962058;-73
2020/12/16 02:05:28;;;;;;;59.56;29.92;;;;;;;4.17;70.77;100261.12;343684;115;1963016;-73
2020/12/16 02:06:36;;;;;;;57.44;29.51;;;;;;;4.21;70.76;100264.33;344375;115;1961889;-72
2020/12/16 02:07:45;;;;;;;54.26;27.80;;;;;;;4.22;70.75;100252.66;343701;115;1962055;-73
2020/12/16 02:08:54;;;;;;;53.79;28.92;;;;;;;4.25;70.63;100260.38;339865;117;1961832;-74
2020/12/16 02:10:00;;;;;;;48.49;29.77;;;;;;;4.25;70.47;100247.84;339301;117;1960887;-73
2020/12/16 02:11:08;;;;;;;52.27;29.07;;;;;;;4.27;70.40;100250.37;344611;115;1960900;-72
2020/12/16 02:12:18;;;;;;;52.93;30.44;;;;;;;4.27;70.42;100255.72;344835;115;1961856;-72
2020/12/16 02:13:23;;;;;;;47.41;26.88;;;;;;;4.26;70.23;100256.69;318620;119;1960924;-73
2020/12/16 02:14:30;;;;;;;51.79;26.49;;;;;;;4.26;70.37;100259.36;339127;117;1960790;-73
2020/12/16 02:15:36;;;;;;;44.01;25.67;;;;;;;4.25;70.35;100260.38;344801;115;1960961;-73
2020/12/16 02:16:43;;;;;;;49.09;25.83;;;;;;;4.28;70.30;100254.72;330035;117;1960823;-73
2020/12/16 02:17:49;;;;;;;48.99;26.14;;;;;;;4.30;70.16;100247.39;344641;115;1960841;-72
2020/12/16 02:18:55;;;;;;;48.24;26.03;;;;;;;4.30;69.96;100253.58;345593;115;1960801;-72
2020/12/16 02:20:06;;;;;;;47.64;26.18;;;;;;;4.31;69.89;100243.71;295339;117;2197586;-73
2020/12/16 02:21:14;;;;;;;48.92;27.13;;;;;;;4.30;69.84;100256.25;343398;117;1960908;-72
2020/12/16 02:22:22;;;;;;;42.95;24.52;;;;;;;4.27;69.79;100250.37;329715;117;2234886;-73
2020/12/16 02:23:31;;;;;;;46.22;27.44;;;;;;;4.19;69.83;100243.94;344693;117;1960825;-73
2020/12/16 02:24:59;;;;;;;45.39;27.91;;;;;;;4.11;69.98;100249.19;344393;115;1960794;-72
2020/12/16 02:26:06;;;;;;;46.89;27.32;;;;;;;4.02;70.07;100250.08;343832;115;1961928;-73
2020/12/16 02:27:11;;;;;;;48.65;28.22;;;;;;;3.91;70.26;100244.94;345450;115;1960940;-73
2020/12/16 02:28:17;;;;;;;48.06;26.12;;;;;;;3.82;70.36;100244.00;343511;117;1962935;-73
2020/12/16 02:29:25;;;;;;;43.22;25.27;;;;;;;3.74;70.57;100251.92;344874;115;1963969;-73
2020/12/16 02:30:32;;;;;;;43.41;24.19;;;;;;;3.70;70.97;100245.17;344495;115;1962019;-73
2020/12/16 02:31:56;;;;;;;44.97;24.12;;;;;;;3.71;70.86;100247.72;279070;123;2121145;-73
2020/12/16 02:33:02;;;;;;;39.13;22.42;;;;;;;3.74;70.84;100246.58;318582;125;1961890;-72
2020/12/16 02:34:09;;;;;;;43.22;25.11;;;;;;;3.75;70.78;100253.59;294825;126;2325378;-74
2020/12/16 02:35:17;;;;;;;40.90;23.82;;;;;;;3.78;70.78;100257.80;343590;115;1962905;-72
2020/12/16 02:36:24;;;;;;;36.59;21.06;;;;;;;3.79;70.83;100255.00;300279;115;2066376;-72
2020/12/16 02:37:31;;;;;;;39.17;23.11;;;;;;;3.81;70.90;100249.48;343348;115;1963926;-72
2020/12/16 02:38:47;;;;;;;38.19;22.99;;;;;;;3.84;70.95;100254.56;344744;115;1963040;-72
2020/12/16 02:40:06;;;;;;;40.31;24.07;;;;;;;3.86;70.92;100244.54;319707;115;1961993;-73
2020/12/16 02:41:12;;;;;;;34.90;21.87;;;;;;;3.88;70.84;100248.75;338349;117;1962975;-72
2020/12/16 02:42:24;;;;;;;36.52;22.59;;;;;;;3.91;70.68;100252.95;313814;118;2419030;-73
2020/12/16 02:43:29;;;;;;;36.53;21.51;;;;;;;3.92;70.67;100249.31;335814;118;1963023;-72
2020/12/16 02:44:35;;;;;;;32.25;20.98;;;;;;;3.92;70.72;100247.48;334037;119;1962067;-73
2020/12/16 02:45:45;;;;;;;35.47;22.77;;;;;;;3.94;70.72;100247.31;333452;119;1961991;-72
2020/12/16 02:46:59;;;;;;;35.78;23.95;;;;;;;3.96;70.69;100250.68;333367;119;1961968;-73
2020/12/16 02:48:04;;;;;;;33.70;21.28;;;;;;;3.98;70.71;100247.88;339304;118;1962053;-72
2020/12/16 02:49:13;;;;;;;34.34;20.57;;;;;;;4.04;70.40;100253.45;337066;118;1962038;-72
2020/12/16 02:50:20;;;;;;;32.80;19.54;;;;;;;4.06;70.33;100253.31;336963;118;1962037;-73
2020/12/16 02:51:26;;;;;;;37.42;20.78;;;;;;;4.06;70.27;100247.97;338819;118;1962036;-73
2020/12/16 02:52:34;;;;;;;35.28;21.43;;;;;;;4.05;70.18;100251.61;333839;119;1963964;-73
2020/12/16 02:53:41;;;;;;;38.85;22.49;;;;;;;4.07;70.13;100253.14;332688;119;1961951;-72
2020/12/16 02:55:03;;;;;;;;;;;;;;;4.10;69.93;100246.66;336755;118;1960946;-74
2020/12/16 02:56:14;;;;;;;34.89;20.44;;;;;;;4.05;69.95;100248.94;332751;119;1961052;-73
2020/12/16 02:57:21;;;;;;;33.02;21.13;;;;;;;4.08;69.97;100254.02;288698;119;2159380;-72
2020/12/16 02:58:28;;;;;;;37.12;22.07;;;;;;;4.07;69.73;100252.31;333344;119;1961960;-73
2020/12/16 02:59:35;;;;;;;38.52;23.31;;;;;;;4.01;69.92;100251.08;333503;119;1962013;-72
2020/12/16 03:00:43;;;;;;;36.09;22.58;;;;;;;3.93;70.03;100250.98;335941;119;1962046;-73
2020/12/16 03:02:07;;;;;;;36.88;23.18;;;;;;;3.85;69.98;100257.06;330615;120;1962022;-73
2020/12/16 03:03:23;;;;;;;39.07;23.00;;;;;;;3.72;70.16;100243.20;332270;120;1961910;-73
2020/12/16 03:04:31;;;;;;;40.64;24.62;;;;;;;3.63;70.49;100244.94;325081;122;1962967;-73
2020/12/16 03:05:56;;;;;;;40.16;22.79;;;;;;;3.58;70.56;100246.38;331313;120;1962023;-72
2020/12/16 03:07:06;;;;;;;35.59;22.83;;;;;;;3.51;70.76;100244.27;330757;120;1962020;-72
2020/12/16 03:08:14;;;;;;;38.43;23.87;;;;;;;3.51;70.86;100246.09;299739;120;2580998;-72
2020/12/16 03:09:26;;;;;;;37.18;22.85;;;;;;;3.53;70.85;100246.80;302395;120;1965973;-71
2020/12/16 03:10:36;;;;;;;39.44;22.59;;;;;;;3.51;70.91;100246.09;313467;120;2275973;-72
2020/12/16 03:11:43;;;;;;;38.53;23.29;;;;;;;3.56;70.83;100243.83;331666;120;1961949;-73
2020/12/16 03:12:49;;;;;;;38.66;23.12;;;;;;;3.57;70.77;100250.84;297547;120;1967643;-73
2020/12/16 03:13:55;;;;;;;39.24;23.77;;;;;;;3.59;70.84;100246.20;332463;120;1962003;-73
2020/12/16 03:15:02;;;;;;;39.53;24.72;;;;;;;3.61;70.91;100248.75;325462;122;1962038;-73
2020/12/16 03:16:09;;;;;;;38.66;22.96;;;;;;;3.63;70.89;100255.62;323488;120;1961979;-72
2020/12/16 03:17:14;;;;;;;40.87;23.06;;;;;;;3.68;70.73;100252.52;332321;120;1961940;-73
2020/12/16 03:18:21;;;;;;;37.71;23.72;;;;;;;3.68;70.80;100250.69;332181;120;1962011;-73
2020/12/16 03:19:28;;;;;;;38.94;22.46;;;;;;;3.68;70.91;100257.86;332643;120;1962929;-72
2020/12/16 03:20:35;;;;;;;39.82;24.08;;;;;;;3.73;70.74;100258.23;330634;120;1964953;-72
2020/12/16 03:21:42;;;;;;;35.47;22.33;;;;;;;3.75;70.64;100262.45;327232;121;1961019;-73
2020/12/16 03:22:54;;;;;;;35.91;22.81;;;;;;;3.75;70.60;100259.77;326730;121;1960872;-73
2020/12/16 03:24:21;;;;;;;38.96;23.11;;;;;;;3.80;70.50;100255.83;328144;121;1962052;-74
2020/12/16 03:25:34;;;;;;;37.00;22.17;;;;;;;3.79;70.58;100255.00;328414;121;1962038;-73
2020/12/16 03:26:59;;;;;;;35.86;22.55;;;;;;;3.83;70.67;100255.53;327681;121;1961968;-73
2020/12/16 03:28:15;;;;;;;35.26;21.38;;;;;;;3.86;70.65;100248.05;320198;121;1962001;-73
2020/12/16 03:29:22;;;;;;;36.33;23.26;;;;;;;3.91;70.43;100250.28;326388;121;1962015;-73
2020/12/16 03:30:37;;;;;;;38.36;22.28;;;;;;;3.94;70.46;100253.52;318170;121;1961976;-73
2020/12/16 03:31:58;;;;;;;38.51;23.59;;;;;;;3.96;70.42;100251.52;329551;121;1961992;-73
2020/12/16 03:33:20;;;;;;;42.08;23.59;;;;;;;4.00;70.14;100252.08;329977;119;1961818;-73
2020/12/16 03:34:27;;;;;;;33.78;21.39;;;;;;;4.01;70.18;100252.91;331871;120;1964019;-73
2020/12/16 03:35:35;;;;;;;39.16;23.45;;;;;;;4.04;70.22;100250.77;329980;120;1962002;-73
2020/12/16 03:36:43;;;;;;;35.01;23.62;;;;;;;4.07;70.12;100246.96;333063;120;1961929;-73
2020/12/16 03:37:49;;;;;;;36.38;21.89;;;;;;;4.09;69.97;100245.83;330875;120;1961994;-73
2020/12/16 03:38:55;;;;;;;38.82;23.96;;;;;;;4.10;69.84;100250.20;314216;120;2303707;-73
2020/12/16 03:40:01;;;;;;;36.73;23.31;;;;;;;4.12;69.70;100255.38;308261;120;1960672;-72
2020/12/16 03:41:09;;;;;;;38.90;23.62;;;;;;;4.11;69.71;100256.38;345044;111;1962920;-77
2020/12/16 03:42:16;;;;;;;42.14;24.78;;;;;;;4.04;69.63;100253.45;359111;111;1962010;-77
2020/12/16 03:43:21;;;;;;;39.75;25.06;;;;;;;3.96;69.58;100251.52;348580;113;1962929;-78
2020/12/16 03:44:27;;;;;;;38.34;24.97;;;;;;;3.86;69.76;100250.72;350188;113;1961951;-78
2020/12/16 03:45:35;;;;;;;45.03;27.34;;;;;;;3.76;69.96;100257.97;346630;114;1963919;-78
2020/12/16 03:46:43;;;;;;;41.96;24.97;;;;;;;3.64;70.19;100262.64;309620;115;2695921;-78
2020/12/16 03:47:48;;;;;;;42.61;26.04;;;;;;;3.56;70.22;100259.86;328753;115;1963005;-78
2020/12/16 03:48:56;;;;;;;39.60;24.08;;;;;;;3.46;70.42;100267.06;353997;112;1962007;-77
2020/12/16 03:50:04;;;;;;;39.06;24.58;;;;;;;3.38;70.92;100261.60;344772;113;1962064;-77
2020/12/16 03:51:14;;;;;;;37.43;23.30;;;;;;;3.35;71.05;100262.73;351721;114;1964008;-78
2020/12/16 03:52:21;;;;;;;34.92;20.81;;;;;;;3.35;71.33;100270.75;352501;114;1961940;-77
2020/12/16 03:53:34;;;;;;;37.99;23.13;;;;;;;3.40;71.40;100264.98;309601;112;2787958;-78
2020/12/16 03:54:44;;;;;;;35.96;21.95;;;;;;;3.46;71.32;100267.06;353345;112;1962956;-77
2020/12/16 03:56:09;;;;;;;36.55;22.73;;;;;;;3.49;71.30;100262.29;321904;112;1961988;-77
2020/12/16 03:57:16;;;;;;;37.94;22.72;;;;;;;3.56;71.23;100265.20;322953;117;2260065;-77
2020/12/16 03:58:27;;;;;;;36.10;22.56;;;;;;;3.61;71.19;100259.43;315767;117;1963035;-77
2020/12/16 03:59:37;;;;;;;41.24;23.47;;;;;;;3.66;71.03;100265.18;329548;118;1963052;-77
2020/12/16 04:01:05;;;;;;;36.07;21.32;;;;;;;3.69;71.00;100271.06;294967;116;2803692;-77
2020/12/16 04:02:11;;;;;;;35.01;22.43;;;;;;;3.71;70.99;100266.41;339336;112;1961933;-77
2020/12/16 04:03:18;;;;;;;39.35;23.28;;;;;;;3.73;70.98;100267.12;356026;112;1962897;-77
2020/12/16 04:04:31;;;;;;;38.23;23.69;;;;;;;3.79;70.95;100262.18;343441;112;1961979;-77
2020/12/16 04:05:48;;;;;;;36.42;22.83;;;;;;;3.83;70.91;100268.89;336806;107;1960752;31
2020/12/16 04:06:55;;;;;;;37.77;23.56;;;;;;;3.87;70.69;100268.45;350606;115;1962002;-73
2020/12/16 04:08:03;;;;;;;40.16;24.06;;;;;;;3.92;70.60;100262.68;350215;114;1961017;-73
2020/12/16 04:09:20;;;;;;;38.99;23.00;;;;;;;3.95;70.42;100270.39;326591;113;1961945;-74
2020/12/16 04:10:30;;;;;;;35.60;21.88;;;;;;;4.01;70.35;100267.12;307556;115;2713010;-74
2020/12/16 04:11:36;;;;;;;34.91;21.89;;;;;;;4.01;70.13;100261.77;342155;118;1961970;-74
2020/12/16 04:12:50;;;;;;;36.13;22.44;;;;;;;4.02;70.08;100262.61;318591;113;2516904;-73
2020/12/16 04:14:06;;;;;;;36.43;22.42;;;;;;;4.03;70.10;100259.80;356779;113;1962055;-74
2020/12/16 04:15:14;;;;;;;36.52;22.08;;;;;;;4.04;70.00;100261.47;323058;112;2535059;-73
2020/12/16 04:16:22;;;;;;;35.24;22.11;;;;;;;4.03;70.04;100256.29;355501;111;1962015;-73
2020/12/16 04:17:34;;;;;;;37.63;23.22;;;;;;;4.03;69.87;100257.13;324863;110;1962086;-73
2020/12/16 04:18:42;;;;;;;33.74;21.65;;;;;;;4.02;69.97;100255.42;357757;110;1961045;-73
2020/12/16 04:19:47;;;;;;;37.01;22.62;;;;;;;4.03;69.98;100258.96;347606;115;1961902;-74
2020/12/16 04:20:54;;;;;;;40.94;25.44;;;;;;;4.05;69.79;100259.62;325920;115;1961120;-73
2020/12/16 04:22:00;;;;;;;41.93;24.98;;;;;;;4.03;69.44;100256.29;345865;115;1961004;-73
2020/12/16 04:23:08;;;;;;;44.74;26.28;;;;;;;3.95;69.17;100257.03;321881;110;2533036;-78
2020/12/16 04:24:13;;;;;;;38.26;24.27;;;;;;;3.81;69.38;100268.19;349844;114;1962011;-78
2020/12/16 04:25:27;;;;;;;40.96;25.84;;;;;;;3.68;69.65;100263.20;326537;111;2537028;-77
2020/12/16 04:26:35;;;;;;;42.47;25.32;;;;;;;3.53;70.03;100265.50;355384;112;1960985;-78
2020/12/16 04:27:43;;;;;;;44.66;27.32;;;;;;;3.42;70.49;100271.02;355743;112;1960955;-77
2020/12/16 04:28:48;;;;;;;38.85;24.68;;;;;;;3.33;70.72;100269.20;354971;112;1962919;-77
2020/12/16 04:29:55;;;;;;;39.94;24.52;;;;;;;3.27;70.91;100271.47;355121;111;1960953;-78
2020/12/16 04:31:03;;;;;;;40.07;22.66;;;;;;;3.24;71.28;100262.91;337867;114;1961021;-77
2020/12/16 04:32:10;;;;;;;37.78;22.39;;;;;;;3.26;71.51;100269.79;350397;114;1962050;-76
2020/12/16 04:33:17;;;;;;;39.81;23.37;;;;;;;3.32;71.51;100275.55;350101;114;1963069;-75
2020/12/16 04:34:22;;;;;;;33.22;21.06;;;;;;;3.38;71.20;100274.95;356011;112;1962027;-77
2020/12/16 04:35:29;;;;;;;35.96;22.01;;;;;;;3.42;71.12;100273.70;353479;114;1962940;-76
2020/12/16 04:36:36;;;;;;;36.23;23.66;;;;;;;3.46;71.16;100275.07;345782;114;1961951;-78
2020/12/16 04:37:47;;;;;;;36.87;22.53;;;;;;;3.50;71.16;100273.81;354077;113;1963024;-76
2020/12/16 04:38:53;;;;;;;40.06;24.93;;;;;;;3.56;71.13;100272.38;354627;113;1961910;-76
2020/12/16 04:39:59;;;;;;;35.92;22.23;;;;;;;3.60;71.05;100268.41;324926;113;2500068;-76
2020/12/16 04:41:09;;;;;;;38.33;22.83;;;;;;;3.64;70.96;100276.00;355257;112;1963922;-78
2020/12/16 04:42:16;;;;;;;42.36;25.25;;;;;;;3.66;70.93;100274.03;355328;113;1962012;-77
2020/12/16 04:43:23;;;;;;;38.63;24.55;;;;;;;3.71;70.85;100276.27;355386;112;1963014;-77
2020/12/16 04:44:29;;;;;;;37.06;22.46;;;;;;;3.77;70.65;100280.18;337049;111;2269033;-78
2020/12/16 04:45:40;;;;;;;38.46;22.29;;;;;;;3.79;70.59;100279.05;355130;112;1960796;-77
2020/12/16 04:46:49;;;;;;;39.66;24.37;;;;;;;3.82;70.58;100278.75;355850;112;1962045;-77
2020/12/16 04:47:57;;;;;;;38.77;24.34;;;;;;;3.85;70.24;100275.77;356000;112;1962939;-77
2020/12/16 04:49:03;;;;;;;39.76;24.15;;;;;;;3.88;70.04;100275.48;354990;112;1963901;-77
2020/12/16 04:50:13;;;;;;;40.62;22.78;;;;;;;3.89;70.09;100279.84;348324;114;1961978;-77
2020/12/16 04:51:20;;;;;;;42.51;26.29;;;;;;;3.90;70.08;100281.52;355188;112;1961017;-77
2020/12/16 04:52:28;;;;;;;41.15;26.16;;;;;;;3.92;69.98;100284.06;355400;113;1960833;-78
2020/12/16 04:53:46;;;;;;;45.74;26.77;;;;;;;3.96;69.80;100282.75;339012;117;1960821;-77
2020/12/16 04:54:54;;;;;;;44.58;27.43;;;;;;;3.98;69.71;100283.45;354526;112;1961982;-77
2020/12/16 04:56:03;;;;;;;47.11;29.72;;;;;;;4.00;69.44;100281.48;310576;112;2839908;-78
2020/12/16 04:57:22;;;;;;;47.89;28.82;;;;;;;3.93;69.49;100288.41;340577;116;1962116;-78
2020/12/16 04:58:30;;;;;;;50.88;30.01;;;;;;;3.84;69.68;100284.80;335291;118;1962124;-78
2020/12/16 04:59:38;;;;;;;49.24;28.83;;;;;;;3.75;69.82;100293.67;343320;116;1961769;-78
2020/12/16 05:00:51;;;;;;;42.78;25.61;;;;;;;3.66;69.77;100287.39;353489;112;1961965;-77
2020/12/16 05:02:02;;;;;;;45.63;26.27;;;;;;;3.57;69.65;100290.91;355975;112;1962285;-78
2020/12/16 05:03:10;;;;;;;45.01;26.46;;;;;;;3.47;69.81;100295.47;313305;108;2103428;-72
2020/12/16 05:04:36;;;;;;;44.81;26.27;;;;;;;3.39;69.67;100298.86;359895;111;1963745;-72
2020/12/16 05:05:43;;;;;;;39.56;22.72;;;;;;;3.27;69.82;100298.16;360472;111;1962992;-73
2020/12/16 05:06:48;;;;;;;38.63;23.39;;;;;;;3.20;69.90;100299.75;339985;111;2216813;-73
2020/12/16 05:07:54;;;;;;;39.99;24.99;;;;;;;3.10;70.38;100296.24;350298;111;1963915;-73
2020/12/16 05:09:11;;;;;;;36.21;22.07;;;;;;;3.03;70.23;100295.11;356313;111;1961944;-72
2020/12/16 05:10:33;;;;;;;35.43;21.05;;;;;;;2.96;70.59;100299.32;309309;113;2849975;-73